CheckWX is a tool to help pilots better visualize weather data.  It is not intended as a substitute for an official pre-flight weather briefing.

10:33:49 UTC

KGED METAR
Delaware Coastal Airport
Georgetown, Delaware, USA
Current

40 mins ago

KGED 310954Z AUTO 35004KT 10SM FEW090 17/09 A3005 RMK AO2 SLP174 T01720094 $
Observed
May-31 @ 09:54 UTC
Wind
  • 350° at 4 KTS
Visibility
Flight Rules
VFR
Cloud Levels
  • Few at 9,000' AGL
Temperature
17°C / 63°F
Dewpoint
C / 48°F
Humidity
59%
Altimeter
30.05" Hg
Pressure
1017.62 hPa
Previous

2 hours ago

KGED 310854Z AUTO 35005KT 10SM CLR 18/10 A3002 RMK AO2 SLP163 T01830100 53017 $
Observed
May-31 @ 08:54 UTC
Wind
  • 350° at 5 KTS
Visibility
Flight Rules
VFR
Cloud Levels
  • Clear skies
Temperature
18°C / 64°F
Dewpoint
10°C / 50°F
Humidity
60%
Altimeter
30.02" Hg
Pressure
1016.62 hPa
Previous

3 hours ago

KGED 310754Z AUTO 34005KT 10SM BKN095 19/11 A2999 RMK AO2 SLP154 T01940106 $
Observed
May-31 @ 07:54 UTC
Wind
  • 340° at 5 KTS
Visibility
Flight Rules
VFR
Cloud Levels
  • Broken at 9,500' AGL
Temperature
19°C / 66°F
Dewpoint
11°C / 52°F
Humidity
60%
Altimeter
29.99" Hg
Pressure
1015.62 hPa